Balkhash, Balkhash Airport (UAAH)

NameBalkhash Airport
CityBalkhash
CountryKazakhstan
ICAOUAAH
IATABXH
Altitude440 m
CoordinatesGoogle Map
Live Air TrafficLiveATC.net
METARUAAH 171000Z 28006MPS 9999 BKN025CB 04/M03 Q1029 NOSIG RMK QFE734/0979
2018-10-17 10:00:00 Wind: West (280°) 6 m/s - Visibility: > 10000 m - Temperature: 4 °C - Dew point: -3 °C - Humidity: 60.7% - Pressure: 1029 hPa
Statistics

The table below shows the detailed information of all flights to/from Balkhash, Balkhash Airport (UAAH).

Ident Aircraft Coming fromFrom Going toTo Owner nameOwnerDate
D-AINH - A20N - Lufthansa DLH6TR AIRBUS A-320neo A20N Frankfurt, Germany (EDDF) EDDF
764 km
Balkhash, Kazakhstan (UAAH) UAAH
5292 km
Lufthansa Lufthansa Tue, 04 Sep 2018 10:15:49 +0000 4/9/2018 10:15 am
D-AINI - A20N - Lufthansa DLH955 AIRBUS A-320neo A20N Frankfurt, Germany (EDDF) EDDF
1 km
Balkhash, Kazakhstan (UAAH) UAAH
4746 km
Lufthansa Lufthansa Mon, 03 Sep 2018 10:30:39 +0000 3/9/2018 10:30 am
D-AIZG - A320 - Lufthansa DLH6TR AIRBUS A-320 A320 Frankfurt, Germany (EDDF) EDDF
18 km
Balkhash, Kazakhstan (UAAH) UAAH
4736 km
Lufthansa Lufthansa Sun, 02 Sep 2018 10:33:30 +0000 2/9/2018 10:33 am
D-AIQA - A320 - Lufthansa DLH6TR AIRBUS A-320 A320 Frankfurt, Germany (EDDF) EDDF
769 km
Balkhash, Kazakhstan (UAAH) UAAH
5293 km
Lufthansa Lufthansa Sat, 01 Sep 2018 10:25:48 +0000 1/9/2018 10:25 am